sensor_id;sensor_type;location;lat;lon;timestamp;temperature;humidity
28438;DHT22;15667;52.376;9.708;2023-03-20T00:01:12;11.20;99.90
28438;DHT22;15667;52.376;9.708;2023-03-20T00:03:38;13.20;99.90
28438;DHT22;15667;52.376;9.708;2023-03-20T00:06:04;11.70;99.90
28438;DHT22;15667;52.376;9.708;2023-03-20T00:08:29;11.00;99.90
28438;DHT22;15667;52.376;9.708;2023-03-20T00:10:56;10.80;99.90
28438;DHT22;15667;52.376;9.708;2023-03-20T00:13:23;10.90;99.90
28438;DHT22;15667;52.376;9.708;2023-03-20T00:15:50;12.80;99.90
28438;DHT22;15667;52.376;9.708;2023-03-20T00:18:17;10.80;99.90
28438;DHT22;15667;52.376;9.708;2023-03-20T00:20:45;10.90;99.90
28438;DHT22;15667;52.376;9.708;2023-03-20T00:23:10;10.90;99.90
28438;DHT22;15667;52.376;9.708;2023-03-20T00:25:39;10.80;99.90
28438;DHT22;15667;52.376;9.708;2023-03-20T00:28:25;10.70;99.90
28438;DHT22;15667;52.376;9.708;2023-03-20T00:30:53;10.60;99.90
28438;DHT22;15667;52.376;9.708;2023-03-20T00:33:18;10.50;99.90
28438;DHT22;15667;52.376;9.708;2023-03-20T00:35:44;11.90;99.90
28438;DHT22;15667;52.376;9.708;2023-03-20T00:38:09;10.50;99.90
28438;DHT22;15667;52.376;9.708;2023-03-20T00:40:34;10.40;99.90
28438;DHT22;15667;52.376;9.708;2023-03-20T00:43:01;10.90;99.90
28438;DHT22;15667;52.376;9.708;2023-03-20T00:45:27;10.20;99.90
28438;DHT22;15667;52.376;9.708;2023-03-20T00:47:53;10.10;99.90
28438;DHT22;15667;52.376;9.708;2023-03-20T00:50:21;10.20;99.90
28438;DHT22;15667;52.376;9.708;2023-03-20T00:52:48;10.20;99.90
28438;DHT22;15667;52.376;9.708;2023-03-20T00:55:14;10.20;99.90
28438;DHT22;15667;52.376;9.708;2023-03-20T00:57:43;10.10;99.90
28438;DHT22;15667;52.376;9.708;2023-03-20T01:02:35;10.20;99.90
28438;DHT22;15667;52.376;9.708;2023-03-20T01:05:01;10.30;99.90
28438;DHT22;15667;52.376;9.708;2023-03-20T01:07:28;10.30;99.90
28438;DHT22;15667;52.376;9.708;2023-03-20T01:09:53;10.30;99.90
28438;DHT22;15667;52.376;9.708;2023-03-20T01:12:19;10.40;99.90
28438;DHT22;15667;52.376;9.708;2023-03-20T01:14:45;10.20;99.90
28438;DHT22;15667;52.376;9.708;2023-03-20T01:17:18;10.40;99.90
28438;DHT22;15667;52.376;9.708;2023-03-20T01:19:43;10.20;99.90
28438;DHT22;15667;52.376;9.708;2023-03-20T01:22:09;10.30;99.90
28438;DHT22;15667;52.376;9.708;2023-03-20T01:24:34;10.20;99.90
28438;DHT22;15667;52.376;9.708;2023-03-20T01:27:00;10.10;99.90
28438;DHT22;15667;52.376;9.708;2023-03-20T01:29:28;10.20;99.90
28438;DHT22;15667;52.376;9.708;2023-03-20T01:31:54;10.20;99.90
28438;DHT22;15667;52.376;9.708;2023-03-20T01:34:20;10.60;99.90
28438;DHT22;15667;52.376;9.708;2023-03-20T01:36:52;10.20;99.90
28438;DHT22;15667;52.376;9.708;2023-03-20T01:39:19;10.00;99.90
28438;DHT22;15667;52.376;9.708;2023-03-20T01:41:46;10.20;99.90
28438;DHT22;15667;52.376;9.708;2023-03-20T01:44:23;10.10;99.90
28438;DHT22;15667;52.376;9.708;2023-03-20T01:46:50;10.20;99.90
28438;DHT22;15667;52.376;9.708;2023-03-20T01:51:45;10.10;99.90
28438;DHT22;15667;52.376;9.708;2023-03-20T01:54:15;10.50;99.90
28438;DHT22;15667;52.376;9.708;2023-03-20T01:56:43;10.10;99.90
28438;DHT22;15667;52.376;9.708;2023-03-20T01:59:19;10.10;99.90
28438;DHT22;15667;52.376;9.708;2023-03-20T02:01:46;10.10;99.90
28438;DHT22;15667;52.376;9.708;2023-03-20T02:04:12;10.10;99.90
28438;DHT22;15667;52.376;9.708;2023-03-20T02:06:38;10.00;99.90
28438;DHT22;15667;52.376;9.708;2023-03-20T02:09:04;10.60;99.90
28438;DHT22;15667;52.376;9.708;2023-03-20T02:11:30;10.00;99.90
28438;DHT22;15667;52.376;9.708;2023-03-20T02:13:56;10.00;99.90
28438;DHT22;15667;52.376;9.708;2023-03-20T02:16:22;10.40;99.90
28438;DHT22;15667;52.376;9.708;2023-03-20T02:18:49;9.90;99.90
28438;DHT22;15667;52.376;9.708;2023-03-20T02:22:00;9.90;99.90
28438;DHT22;15667;52.376;9.708;2023-03-20T02:29:27;10.20;99.90
28438;DHT22;15667;52.376;9.708;2023-03-20T02:32:20;10.20;99.90
28438;DHT22;15667;52.376;9.708;2023-03-20T02:37:33;10.20;99.90
28438;DHT22;15667;52.376;9.708;2023-03-20T02:43:19;10.20;99.90
28438;DHT22;15667;52.376;9.708;2023-03-20T02:45:54;10.10;99.90
28438;DHT22;15667;52.376;9.708;2023-03-20T02:53:38;9.90;99.90
28438;DHT22;15667;52.376;9.708;2023-03-20T02:58:49;9.90;99.90
28438;DHT22;15667;52.376;9.708;2023-03-20T03:03:57;9.70;99.90
28438;DHT22;15667;52.376;9.708;2023-03-20T03:06:31;9.80;99.90
28438;DHT22;15667;52.376;9.708;2023-03-20T03:09:08;9.70;99.90
28438;DHT22;15667;52.376;9.708;2023-03-20T03:11:37;9.70;99.90
28438;DHT22;15667;52.376;9.708;2023-03-20T03:14:05;9.80;99.90
28438;DHT22;15667;52.376;9.708;2023-03-20T03:16:32;9.80;99.90
28438;DHT22;15667;52.376;9.708;2023-03-20T03:19:12;9.80;99.90
28438;DHT22;15667;52.376;9.708;2023-03-20T03:21:39;9.80;99.90
28438;DHT22;15667;52.376;9.708;2023-03-20T03:24:13;9.70;99.90
28438;DHT22;15667;52.376;9.708;2023-03-20T03:26:42;9.70;99.90
28438;DHT22;15667;52.376;9.708;2023-03-20T03:29:12;9.60;99.90
28438;DHT22;15667;52.376;9.708;2023-03-20T03:31:39;9.50;99.90
28438;DHT22;15667;52.376;9.708;2023-03-20T03:34:07;9.40;99.90
28438;DHT22;15667;52.376;9.708;2023-03-20T03:36:37;9.40;99.90
28438;DHT22;15667;52.376;9.708;2023-03-20T03:41:48;9.40;99.90
28438;DHT22;15667;52.376;9.708;2023-03-20T03:46:49;9.30;99.90
28438;DHT22;15667;52.376;9.708;2023-03-20T03:49:18;9.40;99.90
28438;DHT22;15667;52.376;9.708;2023-03-20T03:51:45;9.40;99.90
28438;DHT22;15667;52.376;9.708;2023-03-20T03:54:17;9.30;99.90
28438;DHT22;15667;52.376;9.708;2023-03-20T03:56:43;9.30;99.90
28438;DHT22;15667;52.376;9.708;2023-03-20T03:59:12;9.20;99.90
28438;DHT22;15667;52.376;9.708;2023-03-20T04:01:39;9.80;99.90
28438;DHT22;15667;52.376;9.708;2023-03-20T04:04:08;9.20;99.90
28438;DHT22;15667;52.376;9.708;2023-03-20T04:06:34;9.20;99.90
28438;DHT22;15667;52.376;9.708;2023-03-20T04:09:00;9.10;99.90
28438;DHT22;15667;52.376;9.708;2023-03-20T04:11:28;9.20;99.90
28438;DHT22;15667;52.376;9.708;2023-03-20T04:13:53;9.20;99.90
28438;DHT22;15667;52.376;9.708;2023-03-20T04:16:20;9.20;99.90
28438;DHT22;15667;52.376;9.708;2023-03-20T04:18:46;9.20;99.90
28438;DHT22;15667;52.376;9.708;2023-03-20T04:21:12;9.20;99.90
28438;DHT22;15667;52.376;9.708;2023-03-20T04:23:38;9.30;99.90
28438;DHT22;15667;52.376;9.708;2023-03-20T04:26:03;9.20;99.90
28438;DHT22;15667;52.376;9.708;2023-03-20T04:28:29;9.20;99.90
28438;DHT22;15667;52.376;9.708;2023-03-20T04:30:55;9.40;99.90
28438;DHT22;15667;52.376;9.708;2023-03-20T04:33:21;9.50;99.90
28438;DHT22;15667;52.376;9.708;2023-03-20T04:35:47;9.30;99.90
28438;DHT22;15667;52.376;9.708;2023-03-20T04:38:13;9.30;99.90
28438;DHT22;15667;52.376;9.708;2023-03-20T04:40:38;9.30;99.90
28438;DHT22;15667;52.376;9.708;2023-03-20T04:43:04;9.30;99.90
28438;DHT22;15667;52.376;9.708;2023-03-20T04:45:29;9.40;99.90
28438;DHT22;15667;52.376;9.708;2023-03-20T04:47:55;9.40;99.90
28438;DHT22;15667;52.376;9.708;2023-03-20T04:50:21;9.40;99.90
28438;DHT22;15667;52.376;9.708;2023-03-20T04:52:46;9.60;99.90
28438;DHT22;15667;52.376;9.708;2023-03-20T04:55:12;9.30;99.90
28438;DHT22;15667;52.376;9.708;2023-03-20T04:57:37;9.30;99.90
28438;DHT22;15667;52.376;9.708;2023-03-20T05:00:03;9.40;99.90
28438;DHT22;15667;52.376;9.708;2023-03-20T05:02:29;9.40;99.90
28438;DHT22;15667;52.376;9.708;2023-03-20T05:04:55;9.50;99.90
28438;DHT22;15667;52.376;9.708;2023-03-20T05:07:20;9.50;99.90
28438;DHT22;15667;52.376;9.708;2023-03-20T05:09:46;9.50;99.90
28438;DHT22;15667;52.376;9.708;2023-03-20T05:12:11;9.50;99.90
28438;DHT22;15667;52.376;9.708;2023-03-20T05:14:37;9.90;99.90
28438;DHT22;15667;52.376;9.708;2023-03-20T05:17:02;9.70;99.90
28438;DHT22;15667;52.376;9.708;2023-03-20T05:19:28;9.50;99.90
28438;DHT22;15667;52.376;9.708;2023-03-20T05:21:53;9.50;99.90
28438;DHT22;15667;52.376;9.708;2023-03-20T05:24:19;9.60;99.90
28438;DHT22;15667;52.376;9.708;2023-03-20T05:26:45;9.60;99.90
28438;DHT22;15667;52.376;9.708;2023-03-20T05:29:11;9.60;99.90
28438;DHT22;15667;52.376;9.708;2023-03-20T05:31:36;9.70;99.90
28438;DHT22;15667;52.376;9.708;2023-03-20T05:34:02;10.30;99.90
28438;DHT22;15667;52.376;9.708;2023-03-20T05:36:27;10.30;99.90
28438;DHT22;15667;52.376;9.708;2023-03-20T05:38:53;10.00;99.90
28438;DHT22;15667;52.376;9.708;2023-03-20T05:41:18;9.90;99.90
28438;DHT22;15667;52.376;9.708;2023-03-20T05:43:44;9.90;99.90
28438;DHT22;15667;52.376;9.708;2023-03-20T05:46:10;10.00;99.90
28438;DHT22;15667;52.376;9.708;2023-03-20T05:48:35;9.80;99.90
28438;DHT22;15667;52.376;9.708;2023-03-20T05:51:01;9.80;99.90
28438;DHT22;15667;52.376;9.708;2023-03-20T05:53:27;9.70;99.90
28438;DHT22;15667;52.376;9.708;2023-03-20T05:55:52;9.80;99.90
28438;DHT22;15667;52.376;9.708;2023-03-20T05:58:18;9.80;99.90
28438;DHT22;15667;52.376;9.708;2023-03-20T06:00:43;9.80;99.90
28438;DHT22;15667;52.376;9.708;2023-03-20T06:03:09;9.80;99.90
28438;DHT22;15667;52.376;9.708;2023-03-20T06:05:34;9.90;99.90
28438;DHT22;15667;52.376;9.708;2023-03-20T06:08:00;9.80;99.90
28438;DHT22;15667;52.376;9.708;2023-03-20T06:10:26;9.80;99.90
28438;DHT22;15667;52.376;9.708;2023-03-20T06:12:54;9.80;99.90
28438;DHT22;15667;52.376;9.708;2023-03-20T06:15:20;9.90;99.90
28438;DHT22;15667;52.376;9.708;2023-03-20T06:17:46;10.00;99.90
28438;DHT22;15667;52.376;9.708;2023-03-20T06:20:11;9.80;99.90
28438;DHT22;15667;52.376;9.708;2023-03-20T06:22:37;9.90;99.90
28438;DHT22;15667;52.376;9.708;2023-03-20T06:25:03;9.90;99.90
28438;DHT22;15667;52.376;9.708;2023-03-20T06:27:29;9.90;99.90
28438;DHT22;15667;52.376;9.708;2023-03-20T06:29:55;10.80;99.90
28438;DHT22;15667;52.376;9.708;2023-03-20T06:32:24;10.70;99.90
28438;DHT22;15667;52.376;9.708;2023-03-20T06:34:52;9.80;99.90
28438;DHT22;15667;52.376;9.708;2023-03-20T06:37:18;9.80;99.90
28438;DHT22;15667;52.376;9.708;2023-03-20T06:39:45;10.90;99.90
28438;DHT22;15667;52.376;9.708;2023-03-20T06:42:13;9.90;99.90
28438;DHT22;15667;52.376;9.708;2023-03-20T06:53:58;9.20;99.90
28438;DHT22;15667;52.376;9.708;2023-03-20T06:56:24;10.00;99.90
28438;DHT22;15667;52.376;9.708;2023-03-20T06:58:49;10.10;99.90
28438;DHT22;15667;52.376;9.708;2023-03-20T07:01:15;10.00;99.90
28438;DHT22;15667;52.376;9.708;2023-03-20T07:03:42;10.00;99.90
28438;DHT22;15667;52.376;9.708;2023-03-20T07:06:07;10.00;99.90
28438;DHT22;15667;52.376;9.708;2023-03-20T07:08:33;10.10;99.90
28438;DHT22;15667;52.376;9.708;2023-03-20T07:10:59;9.30;99.90
28438;DHT22;15667;52.376;9.708;2023-03-20T07:13:25;11.80;99.90
28438;DHT22;15667;52.376;9.708;2023-03-20T07:15:50;10.00;99.90
28438;DHT22;15667;52.376;9.708;2023-03-20T07:18:17;10.70;99.90
28438;DHT22;15667;52.376;9.708;2023-03-20T07:20:43;10.20;99.90
28438;DHT22;15667;52.376;9.708;2023-03-20T07:23:08;10.20;99.90
28438;DHT22;15667;52.376;9.708;2023-03-20T07:25:35;10.10;99.90
28438;DHT22;15667;52.376;9.708;2023-03-20T07:28:00;10.30;99.90
28438;DHT22;15667;52.376;9.708;2023-03-20T07:30:26;10.10;99.90
28438;DHT22;15667;52.376;9.708;2023-03-20T07:32:52;10.20;99.90
28438;DHT22;15667;52.376;9.708;2023-03-20T07:35:17;10.10;99.90
28438;DHT22;15667;52.376;9.708;2023-03-20T07:37:43;10.20;99.90
28438;DHT22;15667;52.376;9.708;2023-03-20T07:40:09;10.20;99.90
28438;DHT22;15667;52.376;9.708;2023-03-20T07:42:35;10.20;99.90
28438;DHT22;15667;52.376;9.708;2023-03-20T07:45:00;10.20;99.90
28438;DHT22;15667;52.376;9.708;2023-03-20T07:47:26;11.30;99.90
28438;DHT22;15667;52.376;9.708;2023-03-20T07:49:51;10.20;99.90
28438;DHT22;15667;52.376;9.708;2023-03-20T07:52:17;10.10;99.90
28438;DHT22;15667;52.376;9.708;2023-03-20T07:54:42;10.20;99.90
28438;DHT22;15667;52.376;9.708;2023-03-20T07:57:08;10.10;99.90
28438;DHT22;15667;52.376;9.708;2023-03-20T07:59:33;10.10;99.90
28438;DHT22;15667;52.376;9.708;2023-03-20T08:01:59;11.90;99.90
28438;DHT22;15667;52.376;9.708;2023-03-20T08:04:25;10.20;99.90
28438;DHT22;15667;52.376;9.708;2023-03-20T08:06:50;10.30;99.90
28438;DHT22;15667;52.376;9.708;2023-03-20T08:09:16;11.80;99.90
28438;DHT22;15667;52.376;9.708;2023-03-20T08:11:42;12.30;99.90
28438;DHT22;15667;52.376;9.708;2023-03-20T08:14:07;10.30;99.90
28438;DHT22;15667;52.376;9.708;2023-03-20T08:16:33;11.50;99.90
28438;DHT22;15667;52.376;9.708;2023-03-20T08:18:58;12.20;99.90
28438;DHT22;15667;52.376;9.708;2023-03-20T08:21:26;10.30;99.90
28438;DHT22;15667;52.376;9.708;2023-03-20T08:23:52;10.30;99.90
28438;DHT22;15667;52.376;9.708;2023-03-20T08:26:18;11.40;99.90
28438;DHT22;15667;52.376;9.708;2023-03-20T08:28:43;10.40;99.90
28438;DHT22;15667;52.376;9.708;2023-03-20T08:31:09;11.80;99.90
28438;DHT22;15667;52.376;9.708;2023-03-20T08:33:34;10.50;99.90
28438;DHT22;15667;52.376;9.708;2023-03-20T08:36:00;10.30;99.90
28438;DHT22;15667;52.376;9.708;2023-03-20T08:38:26;10.30;99.90
28438;DHT22;15667;52.376;9.708;2023-03-20T08:40:51;10.30;99.90
28438;DHT22;15667;52.376;9.708;2023-03-20T08:43:19;10.40;99.90
28438;DHT22;15667;52.376;9.708;2023-03-20T08:45:44;10.40;99.90
28438;DHT22;15667;52.376;9.708;2023-03-20T08:48:10;10.40;99.90
28438;DHT22;15667;52.376;9.708;2023-03-20T08:50:36;10.40;99.90
28438;DHT22;15667;52.376;9.708;2023-03-20T08:53:02;10.10;99.90
28438;DHT22;15667;52.376;9.708;2023-03-20T08:55:28;10.00;99.90
28438;DHT22;15667;52.376;9.708;2023-03-20T08:57:53;10.10;99.90
28438;DHT22;15667;52.376;9.708;2023-03-20T09:00:22;10.80;99.90
28438;DHT22;15667;52.376;9.708;2023-03-20T09:02:48;9.90;99.90
28438;DHT22;15667;52.376;9.708;2023-03-20T09:05:13;10.10;99.90
28438;DHT22;15667;52.376;9.708;2023-03-20T09:07:39;10.10;99.90
28438;DHT22;15667;52.376;9.708;2023-03-20T09:10:05;11.60;99.90
28438;DHT22;15667;52.376;9.708;2023-03-20T09:12:31;10.20;99.90
28438;DHT22;15667;52.376;9.708;2023-03-20T09:14:57;10.30;99.90
28438;DHT22;15667;52.376;9.708;2023-03-20T09:17:22;11.50;99.90
28438;DHT22;15667;52.376;9.708;2023-03-20T09:19:48;10.30;99.90
28438;DHT22;15667;52.376;9.708;2023-03-20T09:22:14;10.50;99.90
28438;DHT22;15667;52.376;9.708;2023-03-20T09:24:39;10.30;99.90
28438;DHT22;15667;52.376;9.708;2023-03-20T09:27:07;10.30;99.90
28438;DHT22;15667;52.376;9.708;2023-03-20T09:29:33;10.30;99.90
28438;DHT22;15667;52.376;9.708;2023-03-20T09:31:59;10.30;99.90
28438;DHT22;15667;52.376;9.708;2023-03-20T09:34:25;10.30;99.90
28438;DHT22;15667;52.376;9.708;2023-03-20T09:36:51;10.40;99.90
28438;DHT22;15667;52.376;9.708;2023-03-20T09:39:16;10.10;99.90
28438;DHT22;15667;52.376;9.708;2023-03-20T09:41:49;10.20;99.90
28438;DHT22;15667;52.376;9.708;2023-03-20T09:47:02;10.30;99.90
28438;DHT22;15667;52.376;9.708;2023-03-20T09:49:36;10.30;99.90
28438;DHT22;15667;52.376;9.708;2023-03-20T09:54:42;10.70;99.90
28438;DHT22;15667;52.376;9.708;2023-03-20T09:57:14;10.90;99.90
28438;DHT22;15667;52.376;9.708;2023-03-20T09:59:42;10.70;99.90
28438;DHT22;15667;52.376;9.708;2023-03-20T10:02:15;11.20;99.90
28438;DHT22;15667;52.376;9.708;2023-03-20T10:04:44;10.90;99.90
28438;DHT22;15667;52.376;9.708;2023-03-20T10:07:11;10.70;99.90
28438;DHT22;15667;52.376;9.708;2023-03-20T10:09:39;10.70;99.90
28438;DHT22;15667;52.376;9.708;2023-03-20T10:14:48;11.00;99.90
28438;DHT22;15667;52.376;9.708;2023-03-20T10:22:31;10.70;99.90
28438;DHT22;15667;52.376;9.708;2023-03-20T10:27:38;10.80;99.90
28438;DHT22;15667;52.376;9.708;2023-03-20T10:42:41;11.50;99.90
28438;DHT22;15667;52.376;9.708;2023-03-20T10:47:53;11.50;99.90
28438;DHT22;15667;52.376;9.708;2023-03-20T10:50:22;11.50;99.90
28438;DHT22;15667;52.376;9.708;2023-03-20T10:52:48;11.70;99.90
28438;DHT22;15667;52.376;9.708;2023-03-20T10:55:16;11.60;99.90
28438;DHT22;15667;52.376;9.708;2023-03-20T10:57:57;13.00;99.90
28438;DHT22;15667;52.376;9.708;2023-03-20T11:00:25;11.60;99.90
28438;DHT22;15667;52.376;9.708;2023-03-20T11:02:51;11.90;99.90
28438;DHT22;15667;52.376;9.708;2023-03-20T11:10:27;12.20;99.90
28438;DHT22;15667;52.376;9.708;2023-03-20T11:12:55;12.30;99.90
28438;DHT22;15667;52.376;9.708;2023-03-20T11:17:50;13.20;99.90
28438;DHT22;15667;52.376;9.708;2023-03-20T11:20:16;12.30;99.90
28438;DHT22;15667;52.376;9.708;2023-03-20T11:22:41;13.00;99.90
28438;DHT22;15667;52.376;9.708;2023-03-20T11:25:19;12.70;99.90
28438;DHT22;15667;52.376;9.708;2023-03-20T11:27:47;12.30;99.90
28438;DHT22;15667;52.376;9.708;2023-03-20T11:30:12;12.20;99.90
28438;DHT22;15667;52.376;9.708;2023-03-20T11:32:48;12.50;99.90
28438;DHT22;15667;52.376;9.708;2023-03-20T11:40:35;12.30;99.90
28438;DHT22;15667;52.376;9.708;2023-03-20T11:45:43;11.80;99.90
28438;DHT22;15667;52.376;9.708;2023-03-20T11:48:19;11.70;99.90
28438;DHT22;15667;52.376;9.708;2023-03-20T11:50:46;11.90;99.90
28438;DHT22;15667;52.376;9.708;2023-03-20T11:55:45;11.90;99.90
28438;DHT22;15667;52.376;9.708;2023-03-20T11:58:21;11.90;99.90
28438;DHT22;15667;52.376;9.708;2023-03-20T12:00:47;12.10;99.90
28438;DHT22;15667;52.376;9.708;2023-03-20T12:06:07;12.00;99.90
28438;DHT22;15667;52.376;9.708;2023-03-20T12:08:34;12.20;99.90
28438;DHT22;15667;52.376;9.708;2023-03-20T12:11:16;12.20;99.90
28438;DHT22;15667;52.376;9.708;2023-03-20T12:13:43;12.10;99.90
28438;DHT22;15667;52.376;9.708;2023-03-20T12:16:12;12.00;99.90
28438;DHT22;15667;52.376;9.708;2023-03-20T12:18:41;12.10;99.90
28438;DHT22;15667;52.376;9.708;2023-03-20T12:23:52;12.10;99.90
28438;DHT22;15667;52.376;9.708;2023-03-20T12:44:30;12.00;99.90
28438;DHT22;15667;52.376;9.708;2023-03-20T12:56:36;12.10;99.90
28438;DHT22;15667;52.376;9.708;2023-03-20T14:16:17;12.60;99.90
28438;DHT22;15667;52.376;9.708;2023-03-20T14:55:12;10.50;99.90
28438;DHT22;15667;52.376;9.708;2023-03-20T14:57:45;11.60;99.90
28438;DHT22;15667;52.376;9.708;2023-03-20T15:00:28;11.60;99.90
28438;DHT22;15667;52.376;9.708;2023-03-20T15:03:08;11.50;99.90
28438;DHT22;15667;52.376;9.708;2023-03-20T15:05:35;11.70;99.90
28438;DHT22;15667;52.376;9.708;2023-03-20T15:08:03;13.20;99.90
28438;DHT22;15667;52.376;9.708;2023-03-20T15:10:29;11.50;99.90
28438;DHT22;15667;52.376;9.708;2023-03-20T15:12:55;11.60;99.90
28438;DHT22;15667;52.376;9.708;2023-03-20T15:15:26;11.50;99.90
28438;DHT22;15667;52.376;9.708;2023-03-20T15:17:52;11.60;99.90
28438;DHT22;15667;52.376;9.708;2023-03-20T15:20:19;11.60;99.90
28438;DHT22;15667;52.376;9.708;2023-03-20T15:22:49;11.60;99.90
28438;DHT22;15667;52.376;9.708;2023-03-20T15:25:15;11.50;99.90
28438;DHT22;15667;52.376;9.708;2023-03-20T15:27:41;11.50;99.90
28438;DHT22;15667;52.376;9.708;2023-03-20T15:30:08;11.50;99.90
28438;DHT22;15667;52.376;9.708;2023-03-20T15:32:34;11.40;99.90
28438;DHT22;15667;52.376;9.708;2023-03-20T15:35:00;11.40;99.90
28438;DHT22;15667;52.376;9.708;2023-03-20T15:37:28;11.30;99.90
28438;DHT22;15667;52.376;9.708;2023-03-20T15:39:54;11.20;99.90
28438;DHT22;15667;52.376;9.708;2023-03-20T15:42:24;11.30;99.90
28438;DHT22;15667;52.376;9.708;2023-03-20T15:44:51;11.40;99.90
28438;DHT22;15667;52.376;9.708;2023-03-20T15:47:18;11.40;99.90
28438;DHT22;15667;52.376;9.708;2023-03-20T15:49:48;11.30;99.90
28438;DHT22;15667;52.376;9.708;2023-03-20T15:52:20;11.30;99.90
28438;DHT22;15667;52.376;9.708;2023-03-20T15:54:46;11.30;99.90
28438;DHT22;15667;52.376;9.708;2023-03-20T15:57:12;11.60;99.90
28438;DHT22;15667;52.376;9.708;2023-03-20T15:59:42;11.70;99.90
28438;DHT22;15667;52.376;9.708;2023-03-20T16:02:08;11.20;99.90
28438;DHT22;15667;52.376;9.708;2023-03-20T16:04:44;11.00;99.90
28438;DHT22;15667;52.376;9.708;2023-03-20T16:07:18;11.60;99.90
28438;DHT22;15667;52.376;9.708;2023-03-20T16:09:44;11.00;99.90
28438;DHT22;15667;52.376;9.708;2023-03-20T16:12:13;10.90;99.90
28438;DHT22;15667;52.376;9.708;2023-03-20T16:14:39;10.90;99.90
28438;DHT22;15667;52.376;9.708;2023-03-20T16:17:05;11.40;99.90
28438;DHT22;15667;52.376;9.708;2023-03-20T16:19:30;10.80;99.90
28438;DHT22;15667;52.376;9.708;2023-03-20T16:22:15;10.70;99.90
28438;DHT22;15667;52.376;9.708;2023-03-20T16:24:42;10.70;99.90
28438;DHT22;15667;52.376;9.708;2023-03-20T16:27:09;10.80;99.90
28438;DHT22;15667;52.376;9.708;2023-03-20T16:29:39;10.80;99.90
28438;DHT22;15667;52.376;9.708;2023-03-20T16:32:12;10.80;99.90
28438;DHT22;15667;52.376;9.708;2023-03-20T16:34:41;10.60;99.90
28438;DHT22;15667;52.376;9.708;2023-03-20T16:37:27;10.60;99.90
28438;DHT22;15667;52.376;9.708;2023-03-20T16:40:00;10.60;99.90
28438;DHT22;15667;52.376;9.708;2023-03-20T16:42:26;10.50;99.90
28438;DHT22;15667;52.376;9.708;2023-03-20T16:44:53;11.20;99.90
28438;DHT22;15667;52.376;9.708;2023-03-20T16:47:20;10.40;99.90
28438;DHT22;15667;52.376;9.708;2023-03-20T16:52:24;10.50;99.90
28438;DHT22;15667;52.376;9.708;2023-03-20T16:54:50;10.50;99.90
28438;DHT22;15667;52.376;9.708;2023-03-20T16:57:16;10.60;99.90
28438;DHT22;15667;52.376;9.708;2023-03-20T16:59:42;10.40;99.90
28438;DHT22;15667;52.376;9.708;2023-03-20T17:02:22;10.40;99.90
28438;DHT22;15667;52.376;9.708;2023-03-20T17:04:48;9.00;99.90
28438;DHT22;15667;52.376;9.708;2023-03-20T17:07:15;12.30;99.90
28438;DHT22;15667;52.376;9.708;2023-03-20T17:09:58;10.20;99.90
28438;DHT22;15667;52.376;9.708;2023-03-20T17:12:25;10.20;99.90
28438;DHT22;15667;52.376;9.708;2023-03-20T17:14:51;10.20;99.90
28438;DHT22;15667;52.376;9.708;2023-03-20T17:29:38;9.10;99.90
28438;DHT22;15667;52.376;9.708;2023-03-20T17:57:00;10.10;99.90
28438;DHT22;15667;52.376;9.708;2023-03-20T17:59:26;10.10;99.90
28438;DHT22;15667;52.376;9.708;2023-03-20T18:01:55;9.60;99.90
28438;DHT22;15667;52.376;9.708;2023-03-20T18:04:21;11.90;99.90
28438;DHT22;15667;52.376;9.708;2023-03-20T18:06:46;10.00;99.90
28438;DHT22;15667;52.376;9.708;2023-03-20T18:09:12;12.10;99.90
28438;DHT22;15667;52.376;9.708;2023-03-20T18:11:39;10.10;99.90
28438;DHT22;15667;52.376;9.708;2023-03-20T18:14:04;10.60;99.90
28438;DHT22;15667;52.376;9.708;2023-03-20T18:16:30;9.90;99.90
28438;DHT22;15667;52.376;9.708;2023-03-20T18:18:56;10.80;99.90
28438;DHT22;15667;52.376;9.708;2023-03-20T18:21:24;10.00;99.90
28438;DHT22;15667;52.376;9.708;2023-03-20T18:23:50;10.10;99.90
28438;DHT22;15667;52.376;9.708;2023-03-20T18:26:20;10.00;99.90
28438;DHT22;15667;52.376;9.708;2023-03-20T18:28:46;8.90;99.90
28438;DHT22;15667;52.376;9.708;2023-03-20T18:31:12;9.80;99.90
28438;DHT22;15667;52.376;9.708;2023-03-20T18:33:43;9.20;99.90
28438;DHT22;15667;52.376;9.708;2023-03-20T18:36:12;9.70;99.90
28438;DHT22;15667;52.376;9.708;2023-03-20T18:38:38;9.80;99.90
28438;DHT22;15667;52.376;9.708;2023-03-20T18:41:03;9.80;99.90
28438;DHT22;15667;52.376;9.708;2023-03-20T18:43:29;9.70;99.90
28438;DHT22;15667;52.376;9.708;2023-03-20T18:45:54;9.60;99.90
28438;DHT22;15667;52.376;9.708;2023-03-20T18:48:20;9.70;99.90
28438;DHT22;15667;52.376;9.708;2023-03-20T18:50:45;11.60;99.90
28438;DHT22;15667;52.376;9.708;2023-03-20T18:53:15;11.40;99.90
28438;DHT22;15667;52.376;9.708;2023-03-20T18:55:40;9.60;99.90
28438;DHT22;15667;52.376;9.708;2023-03-20T18:58:08;9.60;99.90
28438;DHT22;15667;52.376;9.708;2023-03-20T19:00:37;10.50;99.90
28438;DHT22;15667;52.376;9.708;2023-03-20T19:03:04;9.60;99.90
28438;DHT22;15667;52.376;9.708;2023-03-20T19:05:30;9.70;99.90
28438;DHT22;15667;52.376;9.708;2023-03-20T19:07:56;9.50;99.90
28438;DHT22;15667;52.376;9.708;2023-03-20T19:10:25;9.50;99.90
28438;DHT22;15667;52.376;9.708;2023-03-20T19:12:52;9.50;99.90
28438;DHT22;15667;52.376;9.708;2023-03-20T19:15:18;9.50;99.90
28438;DHT22;15667;52.376;9.708;2023-03-20T19:17:43;9.50;99.90
28438;DHT22;15667;52.376;9.708;2023-03-20T19:20:20;9.70;99.90
28438;DHT22;15667;52.376;9.708;2023-03-20T19:22:49;9.30;99.90
28438;DHT22;15667;52.376;9.708;2023-03-20T19:25:15;9.30;99.90
28438;DHT22;15667;52.376;9.708;2023-03-20T19:27:41;9.30;99.90
28438;DHT22;15667;52.376;9.708;2023-03-20T19:32:52;9.30;99.90
28438;DHT22;15667;52.376;9.708;2023-03-20T19:35:17;9.40;99.90
28438;DHT22;15667;52.376;9.708;2023-03-20T19:37:43;9.40;99.90
28438;DHT22;15667;52.376;9.708;2023-03-20T19:40:31;9.40;99.90
28438;DHT22;15667;52.376;9.708;2023-03-20T19:42:55;9.50;99.90
28438;DHT22;15667;52.376;9.708;2023-03-20T19:45:21;9.40;99.90
28438;DHT22;15667;52.376;9.708;2023-03-20T19:47:47;9.40;99.90
28438;DHT22;15667;52.376;9.708;2023-03-20T19:52:47;9.40;99.90
28438;DHT22;15667;52.376;9.708;2023-03-20T19:55:13;9.80;99.90
28438;DHT22;15667;52.376;9.708;2023-03-20T19:57:38;9.40;99.90
28438;DHT22;15667;52.376;9.708;2023-03-20T20:00:04;9.70;99.90
28438;DHT22;15667;52.376;9.708;2023-03-20T20:02:31;9.30;99.90
28438;DHT22;15667;52.376;9.708;2023-03-20T20:04:56;9.30;99.90
28438;DHT22;15667;52.376;9.708;2023-03-20T20:07:22;9.50;99.90
28438;DHT22;15667;52.376;9.708;2023-03-20T20:09:47;9.10;99.90
28438;DHT22;15667;52.376;9.708;2023-03-20T20:12:13;9.20;99.90
28438;DHT22;15667;52.376;9.708;2023-03-20T20:14:38;10.30;99.90
28438;DHT22;15667;52.376;9.708;2023-03-20T20:17:04;9.40;99.90
28438;DHT22;15667;52.376;9.708;2023-03-20T20:19:29;9.80;99.90